createdAt,value
2023-02-01T00:01:00.023Z,43.30
2023-02-01T00:03:27.569Z,43.78
2023-02-01T00:05:58.566Z,53.88
2023-02-01T00:08:25.523Z,56.08
2023-02-01T00:11:10.198Z,52.85
2023-02-01T00:13:39.788Z,53.45
2023-02-01T00:16:18.031Z,47.40
2023-02-01T00:18:46.677Z,41.95
2023-02-01T00:21:15.971Z,40.78
2023-02-01T00:23:43.210Z,43.27
2023-02-01T00:26:18.847Z,44.58
2023-02-01T00:28:46.958Z,43.35
2023-02-01T00:34:00.462Z,46.17
2023-02-01T00:36:27.452Z,46.25
2023-02-01T00:38:54.317Z,54.78
2023-02-01T00:41:23.072Z,47.58
2023-02-01T00:43:51.251Z,50.85
2023-02-01T00:46:20.029Z,59.53
2023-02-01T00:48:47.105Z,58.28
2023-02-01T00:51:20.049Z,62.03
2023-02-01T00:53:46.994Z,57.83
2023-02-01T00:56:14.226Z,57.58
2023-02-01T00:58:44.450Z,60.78
2023-02-01T01:01:24.958Z,61.15
2023-02-01T01:03:55.719Z,60.60
2023-02-01T01:06:25.960Z,60.25
2023-02-01T01:08:54.930Z,58.58
2023-02-01T01:11:25.019Z,66.93
2023-02-01T01:13:53.701Z,56.97
2023-02-01T01:16:22.764Z,59.65
2023-02-01T01:18:50.462Z,63.72
2023-02-01T01:21:18.721Z,61.55
2023-02-01T01:23:47.507Z,56.30
2023-02-01T01:26:26.070Z,54.03
2023-02-01T01:28:53.625Z,56.20
2023-02-01T01:31:21.941Z,54.28
2023-02-01T01:33:51.901Z,56.20
2023-02-01T01:36:19.346Z,59.17
2023-02-01T01:38:46.329Z,52.38
2023-02-01T01:41:17.217Z,50.85
2023-02-01T01:44:00.533Z,50.70
2023-02-01T01:46:29.515Z,51.30
2023-02-01T01:49:14.730Z,52.83
2023-02-01T01:51:48.596Z,51.33
2023-02-01T01:54:21.259Z,51.55
2023-02-01T01:56:56.622Z,51.72
2023-02-01T01:59:25.769Z,52.15
2023-02-01T02:01:53.728Z,50.53
2023-02-01T02:04:21.325Z,54.60
2023-02-01T02:07:09.184Z,55.15
2023-02-01T02:09:36.358Z,54.15
2023-02-01T02:12:03.318Z,54.03
2023-02-01T02:14:31.080Z,55.55
2023-02-01T02:17:19.018Z,60.45
2023-02-01T02:20:11.852Z,56.45
2023-02-01T02:22:59.855Z,56.10
2023-02-01T02:25:29.514Z,55.60
2023-02-01T02:28:21.003Z,50.40
2023-02-01T02:31:06.128Z,52.75
2023-02-01T02:33:36.002Z,50.40
2023-02-01T02:36:12.419Z,50.67
2023-02-01T02:38:57.801Z,51.90
2023-02-01T02:41:58.367Z,47.28
2023-02-01T02:44:55.523Z,52.15
2023-02-01T02:47:37.461Z,47.88
2023-02-01T02:50:47.352Z,48.08
2023-02-01T02:53:43.470Z,49.33
2023-02-01T02:56:30.343Z,49.35
2023-02-01T02:59:18.023Z,51.90
2023-02-01T03:02:04.142Z,47.03
2023-02-01T03:04:31.109Z,49.08
2023-02-01T03:06:58.598Z,47.42
2023-02-01T03:09:35.023Z,46.17
2023-02-01T03:12:27.445Z,54.60
2023-02-01T03:15:01.653Z,45.40
2023-02-01T03:17:36.001Z,53.33
2023-02-01T03:20:05.138Z,54.15
2023-02-01T03:22:35.219Z,58.20
2023-02-01T03:25:24.114Z,52.90
2023-02-01T03:28:03.521Z,50.17
2023-02-01T03:30:38.937Z,51.17
2023-02-01T03:33:15.056Z,50.42
2023-02-01T03:35:42.346Z,49.40
2023-02-01T03:38:13.965Z,53.08
2023-02-01T03:40:45.405Z,50.60
2023-02-01T03:43:18.891Z,54.95
2023-02-01T03:45:50.927Z,52.17
2023-02-01T03:48:19.576Z,50.72
2023-02-01T03:50:51.938Z,45.45
2023-02-01T03:53:23.424Z,52.15
2023-02-01T03:55:52.213Z,45.72
2023-02-01T03:58:24.112Z,48.95
2023-02-01T04:00:54.921Z,40.53
2023-02-01T04:03:22.955Z,46.20
2023-02-01T04:05:50.946Z,42.22
2023-02-01T04:08:19.120Z,44.55
2023-02-01T04:10:46.065Z,45.72
2023-02-01T04:13:13.678Z,41.78
2023-02-01T04:15:40.930Z,44.38
2023-02-01T04:18:07.926Z,41.85
2023-02-01T04:20:34.747Z,42.10
2023-02-01T04:23:03.687Z,42.92
2023-02-01T04:25:31.110Z,40.72
2023-02-01T04:27:58.060Z,42.60
2023-02-01T04:30:25.368Z,42.63
2023-02-01T04:32:52.458Z,41.80
2023-02-01T04:35:19.373Z,54.33
2023-02-01T04:37:46.324Z,43.78
2023-02-01T04:40:13.621Z,40.97
2023-02-01T04:42:43.501Z,45.72
2023-02-01T04:45:10.995Z,38.53
2023-02-01T04:47:37.935Z,42.40
2023-02-01T04:50:07.049Z,49.80
2023-02-01T04:52:34.740Z,47.83
2023-02-01T04:55:03.498Z,44.05
2023-02-01T04:57:30.331Z,43.72
2023-02-01T04:59:57.265Z,45.40
2023-02-01T05:02:24.224Z,43.90
2023-02-01T05:04:51.778Z,40.80
2023-02-01T05:07:19.259Z,48.05
2023-02-01T05:09:46.181Z,34.67
2023-02-01T05:12:32.880Z,37.95
2023-02-01T05:14:59.813Z,36.15
2023-02-01T05:17:26.743Z,32.85
2023-02-01T05:19:53.807Z,34.88
2023-02-01T05:22:20.689Z,36.10
2023-02-01T05:24:47.673Z,39.95
2023-02-01T05:27:14.662Z,37.22
2023-02-01T05:29:41.728Z,38.90
2023-02-01T05:32:21.571Z,33.15
2023-02-01T05:34:49.240Z,35.63
2023-02-01T05:37:16.166Z,35.72
2023-02-01T05:39:43.085Z,40.38
2023-02-01T05:42:09.882Z,38.63
2023-02-01T05:44:36.715Z,39.50
2023-02-01T05:47:03.613Z,40.30
2023-02-01T05:49:30.603Z,40.90
2023-02-01T05:51:59.384Z,42.53
2023-02-01T05:54:27.268Z,39.80
2023-02-01T05:56:54.085Z,41.63
2023-02-01T05:59:21.015Z,38.95
2023-02-01T06:01:47.788Z,37.35
2023-02-01T06:04:14.649Z,42.47
2023-02-01T06:06:41.450Z,40.10
2023-02-01T06:09:08.467Z,43.78
2023-02-01T06:11:35.275Z,44.80
2023-02-01T06:14:02.221Z,37.00
2023-02-01T06:16:29.116Z,41.17
2023-02-01T06:18:56.109Z,42.80
2023-02-01T06:21:25.760Z,44.42
2023-02-01T06:23:53.265Z,40.40
2023-02-01T06:26:20.426Z,37.63
2023-02-01T06:28:47.589Z,39.00
2023-02-01T06:31:14.520Z,37.53
2023-02-01T06:33:41.961Z,35.10
2023-02-01T06:36:12.164Z,35.90
2023-02-01T06:38:39.898Z,35.35
2023-02-01T06:41:06.999Z,40.33
2023-02-01T06:43:34.438Z,37.92
2023-02-01T06:46:07.634Z,42.88
2023-02-01T06:48:35.653Z,37.85
2023-02-01T06:51:02.553Z,44.95
2023-02-01T06:53:30.056Z,37.70
2023-02-01T06:55:59.075Z,34.70
2023-02-01T06:58:29.634Z,34.25
2023-02-01T07:00:56.679Z,38.72
2023-02-01T07:03:23.481Z,43.15
2023-02-01T07:05:50.627Z,37.08
2023-02-01T07:08:17.453Z,39.65
2023-02-01T07:10:44.349Z,36.83
2023-02-01T07:13:11.221Z,36.58
2023-02-01T07:15:38.105Z,33.00
2023-02-01T07:18:04.938Z,33.05
2023-02-01T07:20:31.857Z,37.20
2023-02-01T07:22:59.004Z,52.25
2023-02-01T07:25:26.174Z,39.75
2023-02-01T07:27:53.086Z,40.88
2023-02-01T07:30:20.038Z,33.42
2023-02-01T07:32:46.941Z,40.10
2023-02-01T07:35:15.273Z,39.17
2023-02-01T07:37:42.139Z,30.45
2023-02-01T07:40:10.146Z,31.00
2023-02-01T07:42:36.954Z,32.28
2023-02-01T07:45:20.005Z,34.88
2023-02-01T07:47:48.079Z,32.03
2023-02-01T07:50:14.996Z,32.42
2023-02-01T07:52:41.966Z,33.35
2023-02-01T07:55:09.293Z,35.53
2023-02-01T07:57:36.167Z,36.72
2023-02-01T08:00:22.773Z,34.45
2023-02-01T08:02:50.414Z,32.42
2023-02-01T08:05:17.196Z,31.20
2023-02-01T08:07:44.066Z,33.47
2023-02-01T08:10:12.605Z,32.63
2023-02-01T08:12:39.652Z,33.95
2023-02-01T08:15:07.033Z,36.80
2023-02-01T08:17:34.078Z,34.90
2023-02-01T08:20:00.892Z,32.67
2023-02-01T08:22:33.052Z,32.17
2023-02-01T08:25:02.443Z,37.83
2023-02-01T08:27:29.368Z,35.60
2023-02-01T08:29:56.310Z,32.70
2023-02-01T08:32:23.205Z,32.85
2023-02-01T08:34:50.029Z,42.85
2023-02-01T08:37:16.854Z,34.30
2023-02-01T08:39:47.807Z,36.42
2023-02-01T08:42:33.410Z,27.08
2023-02-01T08:45:00.364Z,32.92
2023-02-01T08:47:27.356Z,37.45
2023-02-01T08:49:55.218Z,30.23
2023-02-01T08:52:22.177Z,28.35
2023-02-01T08:54:49.102Z,32.03
2023-02-01T08:57:16.314Z,27.13
2023-02-01T08:59:45.067Z,27.27
2023-02-01T09:02:17.168Z,29.35
2023-02-01T09:04:44.606Z,34.00
2023-02-01T09:07:12.016Z,31.75
2023-02-01T09:09:39.885Z,37.78
2023-02-01T09:12:07.331Z,29.67
2023-02-01T09:14:34.544Z,35.05
2023-02-01T09:17:01.339Z,31.55
2023-02-01T09:19:28.167Z,32.33
2023-02-01T09:21:55.178Z,32.03
2023-02-01T09:24:22.108Z,30.88
2023-02-01T09:26:49.137Z,32.83
2023-02-01T09:29:16.156Z,33.42
2023-02-01T09:31:49.863Z,34.63
2023-02-01T09:34:20.479Z,39.80
2023-02-01T09:36:47.357Z,45.85
2023-02-01T09:39:14.372Z,48.63
2023-02-01T09:41:41.220Z,37.22
2023-02-01T09:44:29.999Z,45.67
2023-02-01T09:47:02.551Z,35.50
2023-02-01T09:49:32.767Z,29.98
2023-02-01T09:54:50.717Z,35.90
2023-02-01T09:57:25.389Z,33.53
2023-02-01T10:00:03.917Z,30.10
2023-02-01T10:02:41.187Z,31.48
2023-02-01T10:05:19.276Z,31.33
2023-02-01T10:08:18.108Z,35.55
2023-02-01T10:10:51.562Z,33.17
2023-02-01T10:13:44.184Z,37.40
2023-02-01T10:16:16.569Z,35.65
2023-02-01T10:19:29.685Z,35.47
2023-02-01T10:22:03.719Z,32.08
2023-02-01T10:24:58.310Z,27.80
2023-02-01T10:27:34.081Z,27.75
2023-02-01T10:30:05.912Z,33.85
2023-02-01T10:32:35.849Z,26.38
2023-02-01T10:35:10.376Z,27.63
2023-02-01T10:37:37.365Z,27.88
2023-02-01T10:40:26.886Z,20.90
2023-02-01T10:43:00.131Z,24.50
2023-02-01T10:45:30.210Z,21.73
2023-02-01T10:47:59.761Z,20.48
2023-02-01T10:50:40.335Z,24.42
2023-02-01T10:53:23.277Z,22.63
2023-02-01T10:55:52.495Z,24.02
2023-02-01T10:58:32.818Z,27.83
2023-02-01T11:01:06.403Z,22.85
2023-02-01T11:03:35.346Z,19.38
2023-02-01T11:06:11.216Z,22.95
2023-02-01T11:08:53.455Z,23.58
2023-02-01T11:11:21.444Z,22.23
2023-02-01T11:14:27.109Z,24.08
2023-02-01T11:16:58.372Z,21.20
2023-02-01T11:19:25.573Z,21.92
2023-02-01T11:21:58.720Z,21.80
2023-02-01T11:24:29.924Z,26.80
2023-02-01T11:27:05.764Z,23.77
2023-02-01T11:29:43.544Z,27.40
2023-02-01T11:32:13.353Z,23.10
2023-02-01T11:34:45.502Z,28.33
2023-02-01T11:37:22.216Z,23.65
2023-02-01T11:40:00.652Z,20.30
2023-02-01T11:42:30.148Z,22.40
2023-02-01T11:45:30.588Z,22.92
2023-02-01T11:47:59.627Z,21.85
2023-02-01T11:50:38.827Z,21.75
2023-02-01T11:53:28.019Z,22.83
2023-02-01T11:56:28.961Z,24.17
2023-02-01T11:58:58.841Z,23.23
2023-02-01T12:01:48.752Z,26.13
2023-02-01T12:04:21.518Z,25.83
2023-02-01T12:07:12.880Z,24.45
2023-02-01T12:09:48.907Z,19.67
2023-02-01T12:12:27.710Z,19.40
2023-02-01T12:15:22.280Z,20.27
2023-02-01T12:18:06.744Z,20.52
2023-02-01T12:21:11.814Z,24.98
2023-02-01T12:24:10.590Z,23.63
2023-02-01T12:26:51.383Z,24.33
2023-02-01T12:29:33.966Z,24.77
2023-02-01T12:32:17.656Z,36.15
2023-02-01T12:35:10.397Z,24.50
2023-02-01T12:38:07.455Z,25.00
2023-02-01T12:40:44.527Z,32.67
2023-02-01T12:43:26.323Z,29.05
2023-02-01T12:46:08.288Z,23.98
2023-02-01T12:49:02.849Z,26.42
2023-02-01T12:51:42.817Z,24.92
2023-02-01T12:54:30.892Z,20.15
2023-02-01T12:57:04.203Z,22.40
2023-02-01T13:00:08.060Z,20.88
2023-02-01T13:02:43.810Z,27.60
2023-02-01T13:05:46.157Z,23.65
2023-02-01T13:08:19.283Z,23.65
2023-02-01T13:10:57.597Z,24.88
2023-02-01T13:13:34.591Z,20.50
2023-02-01T13:16:13.551Z,19.08
2023-02-01T13:18:44.921Z,25.23
2023-02-01T13:21:21.260Z,21.50
2023-02-01T13:23:50.166Z,18.30
2023-02-01T13:26:17.215Z,21.63
2023-02-01T13:28:51.806Z,21.98
2023-02-01T13:31:48.126Z,17.67
2023-02-01T13:34:46.758Z,19.98
2023-02-01T13:37:19.731Z,22.77
2023-02-01T13:40:11.043Z,23.95
2023-02-01T13:42:50.825Z,18.13
2023-02-01T13:45:52.120Z,24.05
2023-02-01T13:48:24.424Z,20.30
2023-02-01T13:50:55.862Z,24.48
2023-02-01T13:53:38.195Z,22.10
2023-02-01T13:56:19.290Z,20.85
2023-02-01T13:58:48.224Z,24.15
2023-02-01T14:01:24.209Z,23.00
2023-02-01T14:04:02.987Z,30.17
2023-02-01T14:06:31.186Z,31.30
2023-02-01T14:09:15.217Z,22.67
2023-02-01T14:11:58.891Z,23.65
2023-02-01T14:14:25.803Z,26.85
2023-02-01T14:16:55.252Z,25.73
2023-02-01T14:19:30.764Z,32.03
2023-02-01T14:22:02.531Z,31.95
2023-02-01T14:24:33.546Z,23.23
2023-02-01T14:27:03.868Z,27.42
2023-02-01T14:29:38.127Z,25.92
2023-02-01T14:32:23.641Z,28.35
2023-02-01T14:34:53.643Z,27.83
2023-02-01T14:37:22.016Z,29.30
2023-02-01T14:39:54.751Z,22.90
2023-02-01T14:42:42.839Z,25.98
2023-02-01T14:45:25.594Z,26.85
2023-02-01T14:48:07.803Z,21.52
2023-02-01T14:50:38.020Z,28.42
2023-02-01T14:56:05.388Z,23.58
2023-02-01T14:58:46.467Z,23.13
2023-02-01T15:01:31.654Z,21.75
2023-02-01T15:04:07.095Z,22.35
2023-02-01T15:06:44.134Z,23.83
2023-02-01T15:09:10.953Z,24.52
2023-02-01T15:11:58.921Z,23.77
2023-02-01T15:14:27.347Z,21.60
2023-02-01T15:16:56.945Z,39.05
2023-02-01T15:19:27.337Z,36.72
2023-02-01T15:21:56.732Z,21.83
2023-02-01T15:24:35.142Z,23.17
2023-02-01T15:27:07.443Z,28.48
2023-02-01T15:29:35.186Z,22.27
2023-02-01T15:32:02.223Z,24.65
2023-02-01T15:35:01.791Z,25.60
2023-02-01T15:37:29.765Z,30.40
2023-02-01T15:40:11.809Z,33.15
2023-02-01T15:42:53.191Z,28.70
2023-02-01T15:45:24.059Z,27.15
2023-02-01T15:47:53.588Z,29.70
2023-02-01T15:50:23.327Z,26.65
2023-02-01T15:52:56.889Z,30.67
2023-02-01T15:55:43.332Z,31.00
2023-02-01T15:58:19.652Z,47.63
2023-02-01T16:00:59.020Z,41.00
2023-02-01T16:03:44.075Z,48.15
2023-02-01T16:06:23.001Z,38.33
2023-02-01T16:08:53.329Z,39.13
2023-02-01T16:13:53.112Z,38.97
2023-02-01T16:16:20.002Z,45.33
2023-02-01T16:18:47.043Z,43.05
2023-02-01T16:21:13.921Z,39.45
2023-02-01T16:23:40.898Z,40.05
2023-02-01T16:26:08.128Z,39.65
2023-02-01T16:28:35.571Z,42.08
2023-02-01T16:31:02.912Z,42.22
2023-02-01T16:33:29.902Z,33.58
2023-02-01T16:36:01.104Z,35.28
2023-02-01T16:38:28.161Z,36.28
2023-02-01T16:40:55.190Z,39.10
2023-02-01T16:43:24.504Z,31.90
2023-02-01T16:45:54.496Z,37.95
2023-02-01T16:48:23.472Z,38.95
2023-02-01T16:50:56.532Z,38.58
2023-02-01T16:53:25.207Z,40.00
2023-02-01T16:55:53.412Z,41.47
2023-02-01T16:58:21.800Z,36.25
2023-02-01T17:00:49.253Z,38.35
2023-02-01T17:03:20.162Z,41.20
2023-02-01T17:05:49.926Z,39.10
2023-02-01T17:08:35.043Z,45.83
2023-02-01T17:11:03.147Z,41.45
2023-02-01T17:13:30.321Z,41.78
2023-02-01T17:16:04.356Z,42.17
2023-02-01T17:18:34.792Z,48.38
2023-02-01T17:21:03.852Z,40.50
2023-02-01T17:23:31.583Z,49.63
2023-02-01T17:25:59.159Z,45.78
2023-02-01T17:28:26.256Z,47.85
2023-02-01T17:30:53.140Z,56.95
2023-02-01T17:33:24.739Z,48.72
2023-02-01T17:35:53.885Z,45.55
2023-02-01T17:38:20.693Z,47.47
2023-02-01T17:40:47.670Z,49.38
2023-02-01T17:43:16.431Z,49.70
2023-02-01T17:45:51.925Z,53.45
2023-02-01T17:48:20.865Z,68.07
2023-02-01T17:50:51.100Z,53.08
2023-02-01T17:53:20.496Z,58.75
2023-02-01T17:55:47.382Z,53.15
2023-02-01T17:58:16.658Z,61.72
2023-02-01T18:00:45.513Z,58.43
2023-02-01T18:03:26.967Z,52.97
2023-02-01T18:05:56.324Z,48.75
2023-02-01T18:08:28.877Z,50.55
2023-02-01T18:11:01.024Z,49.00
2023-02-01T18:13:29.178Z,44.35
2023-02-01T18:15:56.208Z,46.67
2023-02-01T18:18:23.111Z,45.15
2023-02-01T18:20:50.285Z,46.60
2023-02-01T18:23:20.159Z,42.80
2023-02-01T18:25:47.488Z,45.53
2023-02-01T18:28:18.187Z,41.40
2023-02-01T18:30:48.498Z,51.25
2023-02-01T18:33:18.503Z,47.33
2023-02-01T18:35:45.518Z,45.15
2023-02-01T18:38:12.571Z,48.60
2023-02-01T18:40:48.042Z,46.13
2023-02-01T18:43:14.949Z,45.90
2023-02-01T18:45:45.123Z,52.00
2023-02-01T18:50:41.680Z,62.33
2023-02-01T18:53:14.369Z,62.23
2023-02-01T18:55:41.371Z,62.35
2023-02-01T18:58:08.772Z,62.40
2023-02-01T19:00:36.219Z,64.88
2023-02-01T19:03:03.433Z,67.95
2023-02-01T19:05:32.191Z,60.15
2023-02-01T19:07:59.018Z,56.10
2023-02-01T19:10:26.355Z,66.13
2023-02-01T19:12:55.910Z,81.60
2023-02-01T19:15:23.013Z,81.00
2023-02-01T19:17:53.544Z,74.25
2023-02-01T19:20:22.487Z,80.03
2023-02-01T19:22:49.611Z,74.13
2023-02-01T19:25:19.522Z,85.72
2023-02-01T19:27:46.893Z,88.45
2023-02-01T19:30:14.302Z,81.80
2023-02-01T19:32:41.676Z,86.07
2023-02-01T19:35:10.397Z,85.88
2023-02-01T19:37:37.340Z,75.60
2023-02-01T19:40:04.525Z,84.70
2023-02-01T19:42:31.391Z,79.55
2023-02-01T19:44:58.154Z,86.43
2023-02-01T19:47:25.036Z,88.60
2023-02-01T19:49:51.864Z,82.65
2023-02-01T19:52:18.866Z,80.85
2023-02-01T19:54:45.689Z,78.88
2023-02-01T19:57:12.490Z,78.05
2023-02-01T19:59:39.395Z,77.90
2023-02-01T20:02:05.425Z,87.63
2023-02-01T20:04:32.275Z,93.60
2023-02-01T20:06:59.244Z,94.35
2023-02-01T20:09:30.332Z,102.55
2023-02-01T20:11:57.614Z,100.50
2023-02-01T20:14:26.615Z,105.88
2023-02-01T20:16:53.521Z,97.00
2023-02-01T20:19:20.353Z,103.70
2023-02-01T20:21:47.397Z,95.63
2023-02-01T20:24:17.434Z,94.50
2023-02-01T20:26:46.199Z,98.53
2023-02-01T20:29:17.512Z,106.05
2023-02-01T20:31:46.050Z,100.50
2023-02-01T20:34:13.450Z,94.10
2023-02-01T20:36:40.707Z,92.45
2023-02-01T20:39:07.570Z,92.65
2023-02-01T20:41:34.407Z,91.90
2023-02-01T20:44:01.220Z,92.43
2023-02-01T20:46:28.195Z,91.97
2023-02-01T20:48:55.147Z,87.38
2023-02-01T20:51:22.181Z,86.00
2023-02-01T20:53:53.711Z,93.38
2023-02-01T20:56:21.185Z,88.18
2023-02-01T20:58:48.277Z,100.07
2023-02-01T21:01:16.291Z,93.97
2023-02-01T21:03:43.581Z,96.22
2023-02-01T21:06:12.935Z,102.90
2023-02-01T21:08:41.548Z,99.87
2023-02-01T21:11:13.319Z,92.80
2023-02-01T21:13:50.781Z,98.65
2023-02-01T21:16:21.066Z,101.13
2023-02-01T21:21:18.831Z,101.80
2023-02-01T21:23:46.067Z,90.32
2023-02-01T21:26:14.700Z,96.80
2023-02-01T21:28:41.538Z,95.30
2023-02-01T21:31:09.004Z,91.50
2023-02-01T21:33:36.335Z,100.40
2023-02-01T21:36:03.646Z,98.38
2023-02-01T21:38:30.472Z,113.65
2023-02-01T21:41:18.084Z,106.65
2023-02-01T21:43:45.462Z,97.53
2023-02-01T21:46:12.591Z,104.03
2023-02-01T21:49:04.710Z,114.82
2023-02-01T21:51:28.810Z,106.15
2023-02-01T21:53:56.328Z,106.18
2023-02-01T21:56:24.536Z,113.82
2023-02-01T21:58:51.360Z,106.25
2023-02-01T22:01:18.488Z,110.78
2023-02-01T22:03:45.331Z,108.55
2023-02-01T22:06:23.613Z,112.32
2023-02-01T22:08:50.465Z,111.82
2023-02-01T22:11:17.332Z,105.97
2023-02-01T22:13:44.212Z,113.25
2023-02-01T22:16:11.155Z,113.00
2023-02-01T22:18:37.993Z,117.75
2023-02-01T22:21:05.332Z,117.63
2023-02-01T22:23:32.374Z,109.97
2023-02-01T22:26:00.938Z,116.32
2023-02-01T22:28:32.095Z,108.82
2023-02-01T22:31:05.396Z,117.53
2023-02-01T22:33:33.824Z,125.38
2023-02-01T22:36:01.523Z,120.03
2023-02-01T22:38:31.663Z,120.82
2023-02-01T22:41:00.148Z,116.75
2023-02-01T22:43:28.055Z,125.35
2023-02-01T22:45:58.974Z,122.40
2023-02-01T22:48:25.821Z,122.07
2023-02-01T22:50:57.168Z,122.65
2023-02-01T22:53:24.165Z,121.00
2023-02-01T22:55:52.243Z,126.13
2023-02-01T22:58:20.129Z,116.93
2023-02-01T23:00:46.936Z,112.88
2023-02-01T23:03:13.860Z,124.43
2023-02-01T23:05:40.733Z,122.38
2023-02-01T23:08:07.689Z,126.18
2023-02-01T23:10:34.612Z,117.85
2023-02-01T23:13:01.625Z,116.47
2023-02-01T23:15:31.737Z,126.65
2023-02-01T23:17:58.837Z,120.45
2023-02-01T23:20:25.732Z,127.57
2023-02-01T23:22:53.201Z,123.15
2023-02-01T23:25:20.361Z,117.80
2023-02-01T23:27:51.241Z,121.38
2023-02-01T23:30:22.357Z,124.28
2023-02-01T23:32:53.274Z,119.85
2023-02-01T23:35:23.737Z,123.80
2023-02-01T23:37:54.689Z,130.77
2023-02-01T23:40:26.116Z,118.35
2023-02-01T23:43:11.971Z,115.05
2023-02-01T23:45:38.870Z,107.85
2023-02-01T23:48:08.437Z,110.00
2023-02-01T23:50:46.760Z,115.70
2023-02-01T23:53:13.907Z,107.07
2023-02-01T23:55:40.690Z,113.35
2023-02-01T23:58:07.571Z,110.10
